createdAt,value
2022-08-03T00:00:05.983Z,28
2022-08-03T00:05:07.179Z,27
2022-08-03T00:10:08.647Z,27
2022-08-03T00:15:10.381Z,28
2022-08-03T00:20:16.805Z,27
2022-08-03T00:25:18.537Z,27
2022-08-03T00:30:19.985Z,27
2022-08-03T00:35:35.141Z,27
2022-08-03T00:40:41.590Z,27
2022-08-03T00:45:43.109Z,27
2022-08-03T00:50:44.861Z,27
2022-08-03T00:55:46.304Z,28
2022-08-03T01:00:47.783Z,27
2022-08-03T01:05:49.192Z,27
2022-08-03T01:10:50.635Z,27
2022-08-03T01:15:52.079Z,27
2022-08-03T01:20:53.517Z,27
2022-08-03T01:25:54.968Z,28
2022-08-03T01:30:56.401Z,27
2022-08-03T01:35:58.165Z,27
2022-08-03T01:40:59.626Z,28
2022-08-03T01:46:01.041Z,27
2022-08-03T01:51:02.496Z,28
2022-08-03T01:56:03.938Z,27
2022-08-03T02:01:05.452Z,27
2022-08-03T02:06:58.422Z,28
2022-08-03T02:12:04.137Z,27
2022-08-03T02:17:05.581Z,27
2022-08-03T02:22:07.074Z,27
2022-08-03T02:27:08.505Z,27
2022-08-03T02:32:10.311Z,27
2022-08-03T02:37:12.032Z,27
2022-08-03T02:42:13.535Z,27
2022-08-03T02:47:14.944Z,27
2022-08-03T02:52:17.028Z,27
2022-08-03T02:57:18.682Z,28
2022-08-03T03:02:20.122Z,28
2022-08-03T03:12:22.843Z,28
2022-08-03T03:17:24.591Z,28
2022-08-03T03:22:26.039Z,28
2022-08-03T03:27:27.565Z,28
2022-08-03T03:32:28.955Z,27
2022-08-03T03:37:30.410Z,27
2022-08-03T03:42:31.849Z,27
2022-08-03T03:47:33.302Z,27
2022-08-03T03:52:34.736Z,27
2022-08-03T03:57:36.181Z,27
2022-08-03T04:02:37.927Z,28
2022-08-03T04:07:39.372Z,28
2022-08-03T04:12:50.076Z,27
2022-08-03T04:17:52.176Z,27
2022-08-03T04:22:53.624Z,27
2022-08-03T04:28:07.888Z,28
2022-08-03T04:33:32.733Z,28
2022-08-03T04:53:37.099Z,27
2022-08-03T04:58:38.691Z,27
2022-08-03T05:03:40.438Z,27
2022-08-03T05:08:46.555Z,27
2022-08-03T05:13:48.459Z,27
2022-08-03T05:18:49.924Z,28
2022-08-03T05:23:51.350Z,27
2022-08-03T05:28:52.796Z,28
2022-08-03T05:33:54.238Z,27
2022-08-03T05:38:58.514Z,28
2022-08-03T05:44:03.717Z,28
2022-08-03T05:54:06.135Z,29
2022-08-03T05:59:22.653Z,28
2022-08-03T06:04:30.471Z,27
2022-08-03T06:09:31.798Z,28
2022-08-03T06:15:36.488Z,29
2022-08-03T06:20:37.931Z,28
2022-08-03T06:25:41.465Z,29
2022-08-03T06:30:42.915Z,28
2022-08-03T06:35:44.736Z,28
2022-08-03T06:40:46.504Z,28
2022-08-03T06:45:50.215Z,27
2022-08-03T06:50:51.687Z,27
2022-08-03T06:55:54.788Z,27
2022-08-03T07:00:56.594Z,28
2022-08-03T07:10:59.038Z,29
2022-08-03T07:16:00.768Z,28
2022-08-03T07:21:02.223Z,28
2022-08-03T07:26:03.668Z,27
2022-08-03T07:31:05.365Z,29
2022-08-03T07:36:06.817Z,28
2022-08-03T07:46:09.225Z,28
2022-08-03T08:01:15.056Z,28
2022-08-03T08:06:16.746Z,29
2022-08-03T08:11:18.202Z,27
2022-08-03T08:16:19.642Z,29
2022-08-03T08:26:22.054Z,27
2022-08-03T08:31:23.507Z,27
2022-08-03T08:36:24.691Z,29
2022-08-03T08:41:32.209Z,28
2022-08-03T08:46:33.811Z,28
2022-08-03T08:51:43.906Z,28
2022-08-03T08:57:01.898Z,28
2022-08-03T09:02:03.636Z,27
2022-08-03T09:07:19.523Z,27
2022-08-03T09:12:40.811Z,27
2022-08-03T09:17:43.431Z,27
2022-08-03T09:22:46.139Z,27
2022-08-03T09:27:47.857Z,27
2022-08-03T09:32:49.616Z,28
2022-08-03T09:38:11.794Z,27
2022-08-03T09:43:15.976Z,27
2022-08-03T09:48:17.417Z,27
2022-08-03T09:53:18.857Z,27
2022-08-03T09:58:20.302Z,27
2022-08-03T10:03:21.743Z,27
2022-08-03T10:08:23.189Z,27
2022-08-03T10:13:24.634Z,27
2022-08-03T10:18:26.080Z,27
2022-08-03T10:23:28.728Z,27
2022-08-03T10:28:32.154Z,27
2022-08-03T10:33:49.359Z,27
2022-08-03T10:43:53.278Z,29
2022-08-03T10:48:55.068Z,29
2022-08-03T10:53:56.290Z,37
2022-08-03T10:58:59.905Z,30
2022-08-03T11:04:09.052Z,29
2022-08-03T11:09:11.446Z,30
2022-08-03T11:19:13.890Z,28
2022-08-03T11:24:15.335Z,29
2022-08-03T11:29:17.114Z,30
2022-08-03T11:34:18.509Z,28
2022-08-03T11:39:19.701Z,30
2022-08-03T11:44:21.141Z,30
2022-08-03T11:49:22.659Z,29
2022-08-03T11:54:24.234Z,31
2022-08-03T11:59:25.902Z,29
2022-08-03T12:04:27.406Z,30
2022-08-03T12:09:28.849Z,30
2022-08-03T12:14:46.470Z,29
2022-08-03T12:19:52.974Z,30
2022-08-03T12:24:54.484Z,28
2022-08-03T12:29:57.198Z,28
2022-08-03T12:35:00.468Z,29
2022-08-03T12:40:09.291Z,30
2022-08-03T12:45:11.581Z,30
2022-08-03T12:50:13.027Z,30
2022-08-03T12:55:14.553Z,30
2022-08-03T13:00:19.928Z,31
2022-08-03T13:05:30.434Z,30
2022-08-03T13:10:32.186Z,30
2022-08-03T13:35:58.324Z,29
2022-08-03T13:41:00.131Z,29
2022-08-03T13:46:01.649Z,28
2022-08-03T13:51:05.577Z,29
2022-08-03T13:56:23.132Z,28
2022-08-03T14:01:53.916Z,28
2022-08-03T14:06:56.780Z,29
2022-08-03T14:12:03.937Z,28
2022-08-03T14:17:09.541Z,29
2022-08-03T14:22:10.971Z,29
2022-08-03T14:27:12.734Z,29
2022-08-03T14:32:14.526Z,29
2022-08-03T14:37:16.032Z,28
2022-08-03T14:42:17.464Z,29
2022-08-03T14:47:19.127Z,29
2022-08-03T14:52:20.721Z,28
2022-08-03T14:57:22.315Z,28
2022-08-03T15:02:24.140Z,29
2022-08-03T15:07:25.552Z,28
2022-08-03T15:12:27.291Z,28
2022-08-03T15:37:52.988Z,27
2022-08-03T15:42:54.428Z,27
2022-08-03T15:47:55.871Z,28
2022-08-03T15:52:57.314Z,27
2022-08-03T15:58:59.170Z,27
2022-08-03T16:04:14.803Z,28
2022-08-03T16:09:23.204Z,28
2022-08-03T16:14:51.702Z,27
2022-08-03T16:19:54.781Z,28
2022-08-03T16:24:56.583Z,28
2022-08-03T16:29:57.781Z,28
2022-08-03T16:34:59.227Z,27
2022-08-03T16:45:01.642Z,28
2022-08-03T16:50:05.828Z,29
2022-08-03T16:55:10.486Z,29
2022-08-03T17:00:33.435Z,29
2022-08-03T17:10:36.841Z,29
2022-08-03T17:15:57.529Z,30
2022-08-03T17:21:01.865Z,29
2022-08-03T17:26:04.290Z,30
2022-08-03T17:31:09.701Z,30
2022-08-03T17:36:33.090Z,30
2022-08-03T17:41:49.268Z,30
2022-08-03T17:46:51.917Z,31
2022-08-03T17:51:54.405Z,30
2022-08-03T17:56:56.154Z,31
2022-08-03T18:02:06.420Z,31
2022-08-03T18:07:13.661Z,31
2022-08-03T18:12:15.442Z,31
2022-08-03T18:17:16.857Z,30
2022-08-03T18:22:18.995Z,31
2022-08-03T18:27:20.411Z,30
2022-08-03T18:32:25.275Z,31
2022-08-03T18:37:26.762Z,33
2022-08-03T18:47:43.605Z,30
2022-08-03T18:52:53.854Z,32
2022-08-03T18:57:55.279Z,31
2022-08-03T19:07:58.095Z,31
2022-08-03T19:13:00.784Z,31
2022-08-03T19:18:03.991Z,34
2022-08-03T21:18:03.667Z,32
2022-08-03T21:23:06.151Z,32
2022-08-03T21:28:07.914Z,31
2022-08-03T21:33:09.338Z,31
2022-08-03T21:38:10.780Z,31
2022-08-03T21:48:13.192Z,32
2022-08-03T21:53:14.642Z,30
2022-08-03T21:58:16.088Z,31
2022-08-03T22:03:17.905Z,32
2022-08-03T22:08:19.264Z,31
2022-08-03T22:13:23.675Z,32
2022-08-03T22:18:45.538Z,32
2022-08-03T22:23:46.721Z,32
2022-08-03T22:33:48.883Z,34
2022-08-03T22:38:50.377Z,33
2022-08-03T22:43:51.597Z,32
2022-08-03T22:48:53.046Z,31
2022-08-03T22:53:54.493Z,35
2022-08-03T22:58:55.982Z,36
2022-08-03T23:03:59.443Z,34
2022-08-03T23:09:03.081Z,35
2022-08-03T23:14:04.306Z,37
2022-08-03T23:19:16.927Z,39
2022-08-03T23:24:29.984Z,38
2022-08-03T23:29:31.654Z,36
2022-08-03T23:34:33.059Z,35
2022-08-03T23:39:34.946Z,36
2022-08-03T23:44:36.458Z,34
2022-08-03T23:49:37.893Z,36
2022-08-03T23:54:39.650Z,36
2022-08-03T23:59:41.103Z,35
